sensor_id;sensor_type;location;lat;lon;timestamp;P1;durP1;ratioP1;P2;durP2;ratioP2
56991;SDS011;42885;49.754;18.636;2023-06-14T00:02:14;9.70;;;5.50;;
56991;SDS011;42885;49.754;18.636;2023-06-14T00:04:45;10.80;;;5.83;;
56991;SDS011;42885;49.754;18.636;2023-06-14T00:07:17;9.53;;;6.20;;
56991;SDS011;42885;49.754;18.636;2023-06-14T00:09:48;8.85;;;6.17;;
56991;SDS011;42885;49.754;18.636;2023-06-14T00:12:19;9.15;;;5.80;;
56991;SDS011;42885;49.754;18.636;2023-06-14T00:14:50;9.33;;;5.62;;
56991;SDS011;42885;49.754;18.636;2023-06-14T00:17:20;10.60;;;6.10;;
56991;SDS011;42885;49.754;18.636;2023-06-14T00:19:52;11.48;;;6.33;;
56991;SDS011;42885;49.754;18.636;2023-06-14T00:22:23;8.60;;;5.90;;
56991;SDS011;42885;49.754;18.636;2023-06-14T00:24:54;8.78;;;6.28;;
56991;SDS011;42885;49.754;18.636;2023-06-14T00:27:25;9.80;;;5.72;;
56991;SDS011;42885;49.754;18.636;2023-06-14T00:29:56;8.85;;;5.90;;
56991;SDS011;42885;49.754;18.636;2023-06-14T00:32:28;13.08;;;5.85;;
56991;SDS011;42885;49.754;18.636;2023-06-14T00:34:59;8.95;;;6.37;;
56991;SDS011;42885;49.754;18.636;2023-06-14T00:37:31;8.03;;;5.92;;
56991;SDS011;42885;49.754;18.636;2023-06-14T00:40:04;8.78;;;5.70;;
56991;SDS011;42885;49.754;18.636;2023-06-14T00:42:36;9.23;;;5.42;;
56991;SDS011;42885;49.754;18.636;2023-06-14T00:45:07;12.90;;;5.72;;
56991;SDS011;42885;49.754;18.636;2023-06-14T00:47:40;12.03;;;6.15;;
56991;SDS011;42885;49.754;18.636;2023-06-14T00:50:13;11.63;;;5.65;;
56991;SDS011;42885;49.754;18.636;2023-06-14T00:52:44;8.88;;;5.35;;
56991;SDS011;42885;49.754;18.636;2023-06-14T00:55:15;10.00;;;5.67;;
56991;SDS011;42885;49.754;18.636;2023-06-14T00:57:46;9.08;;;5.58;;
56991;SDS011;42885;49.754;18.636;2023-06-14T01:00:18;8.93;;;5.83;;
56991;SDS011;42885;49.754;18.636;2023-06-14T01:02:49;7.85;;;5.97;;
56991;SDS011;42885;49.754;18.636;2023-06-14T01:05:20;11.45;;;6.67;;
56991;SDS011;42885;49.754;18.636;2023-06-14T01:10:52;8.60;;;6.10;;
56991;SDS011;42885;49.754;18.636;2023-06-14T01:13:29;8.85;;;6.20;;
56991;SDS011;42885;49.754;18.636;2023-06-14T01:16:07;10.25;;;6.72;;
56991;SDS011;42885;49.754;18.636;2023-06-14T01:18:40;13.80;;;7.03;;
56991;SDS011;42885;49.754;18.636;2023-06-14T01:21:23;11.48;;;6.67;;
56991;SDS011;42885;49.754;18.636;2023-06-14T01:23:54;11.55;;;6.92;;
56991;SDS011;42885;49.754;18.636;2023-06-14T01:26:28;10.55;;;6.50;;
56991;SDS011;42885;49.754;18.636;2023-06-14T01:29:01;10.80;;;6.60;;
56991;SDS011;42885;49.754;18.636;2023-06-14T01:31:32;10.60;;;6.63;;
56991;SDS011;42885;49.754;18.636;2023-06-14T01:36:36;11.93;;;6.92;;
56991;SDS011;42885;49.754;18.636;2023-06-14T01:39:11;13.62;;;6.30;;
56991;SDS011;42885;49.754;18.636;2023-06-14T01:41:44;14.68;;;6.75;;
56991;SDS011;42885;49.754;18.636;2023-06-14T01:44:17;10.90;;;6.63;;
56991;SDS011;42885;49.754;18.636;2023-06-14T01:46:49;11.57;;;6.80;;
56991;SDS011;42885;49.754;18.636;2023-06-14T01:49:22;10.60;;;6.62;;
56991;SDS011;42885;49.754;18.636;2023-06-14T01:51:53;9.38;;;6.58;;
56991;SDS011;42885;49.754;18.636;2023-06-14T01:54:24;11.05;;;6.60;;
56991;SDS011;42885;49.754;18.636;2023-06-14T01:56:56;9.65;;;6.15;;
56991;SDS011;42885;49.754;18.636;2023-06-14T01:59:27;9.65;;;7.28;;
56991;SDS011;42885;49.754;18.636;2023-06-14T02:02:00;8.77;;;6.70;;
56991;SDS011;42885;49.754;18.636;2023-06-14T02:04:34;12.53;;;7.00;;
56991;SDS011;42885;49.754;18.636;2023-06-14T02:07:05;11.75;;;6.97;;
56991;SDS011;42885;49.754;18.636;2023-06-14T02:09:36;11.48;;;8.68;;
56991;SDS011;42885;49.754;18.636;2023-06-14T02:12:08;17.47;;;12.90;;
56991;SDS011;42885;49.754;18.636;2023-06-14T02:14:39;23.85;;;15.70;;
56991;SDS011;42885;49.754;18.636;2023-06-14T02:17:10;21.23;;;15.48;;
56991;SDS011;42885;49.754;18.636;2023-06-14T02:19:42;28.45;;;15.20;;
56991;SDS011;42885;49.754;18.636;2023-06-14T02:22:13;21.52;;;15.75;;
56991;SDS011;42885;49.754;18.636;2023-06-14T02:24:45;25.95;;;16.90;;
56991;SDS011;42885;49.754;18.636;2023-06-14T02:27:16;25.60;;;16.00;;
56991;SDS011;42885;49.754;18.636;2023-06-14T02:29:47;25.57;;;16.20;;
56991;SDS011;42885;49.754;18.636;2023-06-14T02:32:18;23.25;;;15.08;;
56991;SDS011;42885;49.754;18.636;2023-06-14T02:34:49;22.87;;;15.93;;
56991;SDS011;42885;49.754;18.636;2023-06-14T02:37:21;22.48;;;15.08;;
56991;SDS011;42885;49.754;18.636;2023-06-14T02:39:51;23.35;;;15.00;;
56991;SDS011;42885;49.754;18.636;2023-06-14T02:42:22;25.68;;;16.73;;
56991;SDS011;42885;49.754;18.636;2023-06-14T02:44:53;21.65;;;13.85;;
56991;SDS011;42885;49.754;18.636;2023-06-14T02:47:24;21.62;;;14.18;;
56991;SDS011;42885;49.754;18.636;2023-06-14T02:49:55;20.35;;;13.53;;
56991;SDS011;42885;49.754;18.636;2023-06-14T02:52:27;24.07;;;13.73;;
56991;SDS011;42885;49.754;18.636;2023-06-14T02:54:58;21.60;;;13.40;;
56991;SDS011;42885;49.754;18.636;2023-06-14T02:57:29;23.57;;;13.98;;
56991;SDS011;42885;49.754;18.636;2023-06-14T03:00:00;20.50;;;14.10;;
56991;SDS011;42885;49.754;18.636;2023-06-14T03:02:33;24.30;;;15.37;;
56991;SDS011;42885;49.754;18.636;2023-06-14T03:05:04;23.65;;;15.58;;
56991;SDS011;42885;49.754;18.636;2023-06-14T03:07:36;20.88;;;14.60;;
56991;SDS011;42885;49.754;18.636;2023-06-14T03:10:09;26.05;;;15.30;;
56991;SDS011;42885;49.754;18.636;2023-06-14T03:12:42;23.32;;;15.13;;
56991;SDS011;42885;49.754;18.636;2023-06-14T03:15:14;25.50;;;15.30;;
56991;SDS011;42885;49.754;18.636;2023-06-14T03:17:48;25.10;;;14.63;;
56991;SDS011;42885;49.754;18.636;2023-06-14T03:20:20;29.37;;;16.60;;
56991;SDS011;42885;49.754;18.636;2023-06-14T03:22:51;31.48;;;17.85;;
56991;SDS011;42885;49.754;18.636;2023-06-14T03:25:23;33.78;;;17.90;;
56991;SDS011;42885;49.754;18.636;2023-06-14T03:27:55;28.30;;;17.42;;
56991;SDS011;42885;49.754;18.636;2023-06-14T03:30:27;28.73;;;17.63;;
56991;SDS011;42885;49.754;18.636;2023-06-14T03:33:00;31.43;;;17.50;;
56991;SDS011;42885;49.754;18.636;2023-06-14T03:35:31;31.00;;;17.10;;
56991;SDS011;42885;49.754;18.636;2023-06-14T03:38:02;27.58;;;16.55;;
56991;SDS011;42885;49.754;18.636;2023-06-14T03:40:33;29.35;;;17.70;;
56991;SDS011;42885;49.754;18.636;2023-06-14T03:43:05;32.30;;;17.62;;
56991;SDS011;42885;49.754;18.636;2023-06-14T03:45:36;29.67;;;18.40;;
56991;SDS011;42885;49.754;18.636;2023-06-14T03:48:08;27.87;;;17.35;;
56991;SDS011;42885;49.754;18.636;2023-06-14T03:50:39;25.02;;;16.70;;
56991;SDS011;42885;49.754;18.636;2023-06-14T03:53:11;31.17;;;16.73;;
56991;SDS011;42885;49.754;18.636;2023-06-14T03:55:43;31.70;;;18.48;;
56991;SDS011;42885;49.754;18.636;2023-06-14T03:58:14;29.70;;;18.27;;
56991;SDS011;42885;49.754;18.636;2023-06-14T04:00:47;31.25;;;18.15;;
56991;SDS011;42885;49.754;18.636;2023-06-14T04:03:18;26.37;;;17.60;;
56991;SDS011;42885;49.754;18.636;2023-06-14T04:05:51;28.60;;;18.47;;
56991;SDS011;42885;49.754;18.636;2023-06-14T04:08:23;29.90;;;17.67;;
56991;SDS011;42885;49.754;18.636;2023-06-14T04:10:55;28.30;;;17.25;;
56991;SDS011;42885;49.754;18.636;2023-06-14T04:13:26;28.57;;;17.23;;
56991;SDS011;42885;49.754;18.636;2023-06-14T04:15:57;26.75;;;16.57;;
56991;SDS011;42885;49.754;18.636;2023-06-14T04:18:30;31.80;;;17.83;;
56991;SDS011;42885;49.754;18.636;2023-06-14T04:21:01;28.38;;;16.35;;
56991;SDS011;42885;49.754;18.636;2023-06-14T04:23:32;30.77;;;17.73;;
56991;SDS011;42885;49.754;18.636;2023-06-14T04:26:03;30.15;;;18.32;;
56991;SDS011;42885;49.754;18.636;2023-06-14T04:28:34;31.33;;;17.63;;
56991;SDS011;42885;49.754;18.636;2023-06-14T04:31:07;30.37;;;19.30;;
56991;SDS011;42885;49.754;18.636;2023-06-14T04:33:38;28.55;;;17.15;;
56991;SDS011;42885;49.754;18.636;2023-06-14T04:36:11;30.30;;;17.73;;
56991;SDS011;42885;49.754;18.636;2023-06-14T04:38:42;27.62;;;17.40;;
56991;SDS011;42885;49.754;18.636;2023-06-14T04:41:15;22.83;;;16.70;;
56991;SDS011;42885;49.754;18.636;2023-06-14T04:43:48;25.60;;;17.30;;
56991;SDS011;42885;49.754;18.636;2023-06-14T04:46:22;29.07;;;17.77;;
56991;SDS011;42885;49.754;18.636;2023-06-14T04:48:53;30.62;;;17.05;;
56991;SDS011;42885;49.754;18.636;2023-06-14T04:51:24;26.57;;;16.87;;
56991;SDS011;42885;49.754;18.636;2023-06-14T04:53:56;27.37;;;16.60;;
56991;SDS011;42885;49.754;18.636;2023-06-14T04:56:29;26.03;;;16.50;;
56991;SDS011;42885;49.754;18.636;2023-06-14T04:59:00;33.05;;;19.90;;
56991;SDS011;42885;49.754;18.636;2023-06-14T05:01:33;28.50;;;16.30;;
56991;SDS011;42885;49.754;18.636;2023-06-14T05:04:06;24.00;;;15.30;;
56991;SDS011;42885;49.754;18.636;2023-06-14T05:06:37;27.93;;;15.35;;
56991;SDS011;42885;49.754;18.636;2023-06-14T05:09:09;33.63;;;18.35;;
56991;SDS011;42885;49.754;18.636;2023-06-14T05:11:40;29.33;;;18.47;;
56991;SDS011;42885;49.754;18.636;2023-06-14T05:14:14;28.50;;;17.45;;
56991;SDS011;42885;49.754;18.636;2023-06-14T05:16:47;27.00;;;15.63;;
56991;SDS011;42885;49.754;18.636;2023-06-14T05:19:19;23.70;;;15.13;;
56991;SDS011;42885;49.754;18.636;2023-06-14T05:21:50;24.85;;;15.38;;
56991;SDS011;42885;49.754;18.636;2023-06-14T05:24:22;21.85;;;14.60;;
56991;SDS011;42885;49.754;18.636;2023-06-14T05:26:53;26.62;;;15.90;;
56991;SDS011;42885;49.754;18.636;2023-06-14T05:29:24;29.67;;;16.20;;
56991;SDS011;42885;49.754;18.636;2023-06-14T05:31:56;26.65;;;16.48;;
56991;SDS011;42885;49.754;18.636;2023-06-14T05:34:27;23.13;;;15.73;;
56991;SDS011;42885;49.754;18.636;2023-06-14T05:36:58;28.17;;;16.50;;
56991;SDS011;42885;49.754;18.636;2023-06-14T05:39:29;28.10;;;16.37;;
56991;SDS011;42885;49.754;18.636;2023-06-14T05:42:00;29.77;;;16.95;;
56991;SDS011;42885;49.754;18.636;2023-06-14T05:44:31;27.65;;;16.10;;
56991;SDS011;42885;49.754;18.636;2023-06-14T05:47:02;29.52;;;16.67;;
56991;SDS011;42885;49.754;18.636;2023-06-14T05:49:33;25.90;;;16.73;;
56991;SDS011;42885;49.754;18.636;2023-06-14T05:52:05;30.08;;;16.00;;
56991;SDS011;42885;49.754;18.636;2023-06-14T05:54:37;28.65;;;16.23;;
56991;SDS011;42885;49.754;18.636;2023-06-14T05:57:08;29.30;;;17.92;;
56991;SDS011;42885;49.754;18.636;2023-06-14T05:59:40;30.00;;;17.20;;
56991;SDS011;42885;49.754;18.636;2023-06-14T06:02:11;25.27;;;16.93;;
56991;SDS011;42885;49.754;18.636;2023-06-14T06:04:42;26.35;;;16.55;;
56991;SDS011;42885;49.754;18.636;2023-06-14T06:07:14;27.95;;;16.67;;
56991;SDS011;42885;49.754;18.636;2023-06-14T06:09:45;34.48;;;17.32;;
56991;SDS011;42885;49.754;18.636;2023-06-14T06:12:16;29.23;;;17.45;;
56991;SDS011;42885;49.754;18.636;2023-06-14T06:14:47;29.42;;;17.35;;
56991;SDS011;42885;49.754;18.636;2023-06-14T06:17:18;31.42;;;17.42;;
56991;SDS011;42885;49.754;18.636;2023-06-14T06:19:49;30.43;;;17.80;;
56991;SDS011;42885;49.754;18.636;2023-06-14T06:22:21;33.26;;;18.86;;
56991;SDS011;42885;49.754;18.636;2023-06-14T06:24:52;35.33;;;21.20;;
56991;SDS011;42885;49.754;18.636;2023-06-14T06:27:23;33.42;;;20.72;;
56991;SDS011;42885;49.754;18.636;2023-06-14T06:29:54;32.85;;;20.43;;
56991;SDS011;42885;49.754;18.636;2023-06-14T06:32:25;32.40;;;19.92;;
56991;SDS011;42885;49.754;18.636;2023-06-14T06:34:56;30.97;;;19.00;;
56991;SDS011;42885;49.754;18.636;2023-06-14T06:37:28;31.95;;;19.35;;
56991;SDS011;42885;49.754;18.636;2023-06-14T06:39:59;30.62;;;18.00;;
56991;SDS011;42885;49.754;18.636;2023-06-14T06:42:31;29.07;;;17.02;;
56991;SDS011;42885;49.754;18.636;2023-06-14T06:47:34;33.30;;;18.85;;
56991;SDS011;42885;49.754;18.636;2023-06-14T06:50:06;36.77;;;18.60;;
56991;SDS011;42885;49.754;18.636;2023-06-14T06:52:38;32.13;;;18.45;;
56991;SDS011;42885;49.754;18.636;2023-06-14T06:55:09;30.95;;;18.85;;
56991;SDS011;42885;49.754;18.636;2023-06-14T06:57:40;30.17;;;18.23;;
56991;SDS011;42885;49.754;18.636;2023-06-14T07:00:12;30.92;;;19.25;;
56991;SDS011;42885;49.754;18.636;2023-06-14T07:02:43;26.30;;;17.52;;
56991;SDS011;42885;49.754;18.636;2023-06-14T07:05:14;26.23;;;18.67;;
56991;SDS011;42885;49.754;18.636;2023-06-14T07:07:45;30.57;;;18.37;;
56991;SDS011;42885;49.754;18.636;2023-06-14T07:10:16;31.55;;;19.85;;
56991;SDS011;42885;49.754;18.636;2023-06-14T07:12:47;31.80;;;18.82;;
56991;SDS011;42885;49.754;18.636;2023-06-14T07:15:18;28.15;;;18.70;;
56991;SDS011;42885;49.754;18.636;2023-06-14T07:17:51;29.10;;;18.53;;
56991;SDS011;42885;49.754;18.636;2023-06-14T07:20:22;25.87;;;16.93;;
56991;SDS011;42885;49.754;18.636;2023-06-14T07:22:53;28.30;;;18.05;;
56991;SDS011;42885;49.754;18.636;2023-06-14T07:25:25;24.70;;;16.87;;
56991;SDS011;42885;49.754;18.636;2023-06-14T07:27:55;25.82;;;17.07;;
56991;SDS011;42885;49.754;18.636;2023-06-14T07:30:26;28.77;;;16.42;;
56991;SDS011;42885;49.754;18.636;2023-06-14T07:32:59;23.40;;;15.60;;
56991;SDS011;42885;49.754;18.636;2023-06-14T07:35:29;22.07;;;15.58;;
56991;SDS011;42885;49.754;18.636;2023-06-14T07:38:00;27.20;;;15.83;;
56991;SDS011;42885;49.754;18.636;2023-06-14T07:40:31;27.80;;;16.10;;
56991;SDS011;42885;49.754;18.636;2023-06-14T07:43:02;21.35;;;15.18;;
56991;SDS011;42885;49.754;18.636;2023-06-14T07:45:33;21.10;;;15.03;;
56991;SDS011;42885;49.754;18.636;2023-06-14T07:48:04;21.30;;;14.05;;
56991;SDS011;42885;49.754;18.636;2023-06-14T07:50:36;18.65;;;13.22;;
56991;SDS011;42885;49.754;18.636;2023-06-14T07:53:07;17.27;;;11.85;;
56991;SDS011;42885;49.754;18.636;2023-06-14T07:55:38;18.05;;;11.85;;
56991;SDS011;42885;49.754;18.636;2023-06-14T07:58:10;17.70;;;11.53;;
56991;SDS011;42885;49.754;18.636;2023-06-14T08:00:41;15.32;;;11.35;;
56991;SDS011;42885;49.754;18.636;2023-06-14T08:03:12;15.32;;;11.60;;
56991;SDS011;42885;49.754;18.636;2023-06-14T08:05:43;15.45;;;11.15;;
56991;SDS011;42885;49.754;18.636;2023-06-14T08:08:14;17.52;;;11.40;;
56991;SDS011;42885;49.754;18.636;2023-06-14T08:10:45;19.98;;;11.83;;
56991;SDS011;42885;49.754;18.636;2023-06-14T08:13:16;17.17;;;13.05;;
56991;SDS011;42885;49.754;18.636;2023-06-14T08:15:47;17.27;;;12.07;;
56991;SDS011;42885;49.754;18.636;2023-06-14T08:18:19;20.17;;;12.37;;
56991;SDS011;42885;49.754;18.636;2023-06-14T08:20:50;15.33;;;11.93;;
56991;SDS011;42885;49.754;18.636;2023-06-14T08:23:21;16.10;;;11.90;;
56991;SDS011;42885;49.754;18.636;2023-06-14T08:25:52;15.77;;;12.13;;
56991;SDS011;42885;49.754;18.636;2023-06-14T08:28:23;20.85;;;13.08;;
56991;SDS011;42885;49.754;18.636;2023-06-14T08:30:54;19.92;;;13.05;;
56991;SDS011;42885;49.754;18.636;2023-06-14T08:33:25;20.10;;;14.23;;
56991;SDS011;42885;49.754;18.636;2023-06-14T08:35:56;19.20;;;13.10;;
56991;SDS011;42885;49.754;18.636;2023-06-14T08:38:27;24.82;;;13.70;;
56991;SDS011;42885;49.754;18.636;2023-06-14T08:40:58;16.60;;;12.70;;
56991;SDS011;42885;49.754;18.636;2023-06-14T08:43:33;20.52;;;13.62;;
56991;SDS011;42885;49.754;18.636;2023-06-14T08:46:04;17.67;;;13.68;;
56991;SDS011;42885;49.754;18.636;2023-06-14T08:48:38;19.07;;;13.48;;
56991;SDS011;42885;49.754;18.636;2023-06-14T08:51:10;16.30;;;13.05;;
56991;SDS011;42885;49.754;18.636;2023-06-14T08:53:44;17.07;;;12.73;;
56991;SDS011;42885;49.754;18.636;2023-06-14T08:56:16;17.92;;;12.55;;
56991;SDS011;42885;49.754;18.636;2023-06-14T09:01:19;15.70;;;12.20;;
56991;SDS011;42885;49.754;18.636;2023-06-14T09:03:50;13.85;;;11.00;;
56991;SDS011;42885;49.754;18.636;2023-06-14T09:06:23;17.35;;;12.05;;
56991;SDS011;42885;49.754;18.636;2023-06-14T09:08:55;19.37;;;12.57;;
56991;SDS011;42885;49.754;18.636;2023-06-14T09:11:26;15.13;;;11.90;;
56991;SDS011;42885;49.754;18.636;2023-06-14T09:13:57;16.25;;;11.95;;
56991;SDS011;42885;49.754;18.636;2023-06-14T09:16:31;15.80;;;11.37;;
56991;SDS011;42885;49.754;18.636;2023-06-14T09:19:02;19.00;;;12.68;;
56991;SDS011;42885;49.754;18.636;2023-06-14T09:21:33;17.15;;;11.12;;
56991;SDS011;42885;49.754;18.636;2023-06-14T09:24:13;15.00;;;10.88;;
56991;SDS011;42885;49.754;18.636;2023-06-14T09:26:42;13.90;;;10.95;;
56991;SDS011;42885;49.754;18.636;2023-06-14T09:29:13;15.15;;;11.00;;
56991;SDS011;42885;49.754;18.636;2023-06-14T09:31:48;12.87;;;9.63;;
56991;SDS011;42885;49.754;18.636;2023-06-14T09:34:20;10.78;;;8.60;;
56991;SDS011;42885;49.754;18.636;2023-06-14T09:36:52;15.18;;;9.40;;
56991;SDS011;42885;49.754;18.636;2023-06-14T09:39:24;12.05;;;9.80;;
56991;SDS011;42885;49.754;18.636;2023-06-14T09:41:56;13.67;;;9.33;;
56991;SDS011;42885;49.754;18.636;2023-06-14T09:44:27;11.75;;;9.28;;
56991;SDS011;42885;49.754;18.636;2023-06-14T09:46:58;14.40;;;9.80;;
56991;SDS011;42885;49.754;18.636;2023-06-14T09:49:30;13.22;;;9.90;;
56991;SDS011;42885;49.754;18.636;2023-06-14T09:52:01;15.95;;;10.88;;
56991;SDS011;42885;49.754;18.636;2023-06-14T09:54:33;20.00;;;10.55;;
56991;SDS011;42885;49.754;18.636;2023-06-14T09:57:07;15.08;;;10.68;;
56991;SDS011;42885;49.754;18.636;2023-06-14T09:59:46;18.07;;;10.90;;
56991;SDS011;42885;49.754;18.636;2023-06-14T10:02:27;16.17;;;10.40;;
56991;SDS011;42885;49.754;18.636;2023-06-14T10:05:05;16.23;;;10.37;;
56991;SDS011;42885;49.754;18.636;2023-06-14T10:07:42;18.45;;;10.93;;
56991;SDS011;42885;49.754;18.636;2023-06-14T10:10:16;16.48;;;10.58;;
56991;SDS011;42885;49.754;18.636;2023-06-14T10:12:47;16.55;;;10.85;;
56991;SDS011;42885;49.754;18.636;2023-06-14T10:15:20;19.20;;;10.28;;
56991;SDS011;42885;49.754;18.636;2023-06-14T10:17:54;14.07;;;10.03;;
56991;SDS011;42885;49.754;18.636;2023-06-14T10:20:38;41.10;;;13.30;;
56991;SDS011;42885;49.754;18.636;2023-06-14T10:23:16;14.78;;;10.45;;
56991;SDS011;42885;49.754;18.636;2023-06-14T10:25:58;23.02;;;11.60;;
56991;SDS011;42885;49.754;18.636;2023-06-14T10:28:29;14.10;;;10.17;;
56991;SDS011;42885;49.754;18.636;2023-06-14T10:31:10;18.45;;;9.98;;
56991;SDS011;42885;49.754;18.636;2023-06-14T10:33:48;15.63;;;9.98;;
56991;SDS011;42885;49.754;18.636;2023-06-14T10:36:29;12.63;;;9.08;;
56991;SDS011;42885;49.754;18.636;2023-06-14T10:39:14;11.45;;;7.90;;
56991;SDS011;42885;49.754;18.636;2023-06-14T10:41:50;13.33;;;7.77;;
56991;SDS011;42885;49.754;18.636;2023-06-14T10:46:58;14.70;;;7.80;;
56991;SDS011;42885;49.754;18.636;2023-06-14T10:49:42;19.17;;;8.50;;
56991;SDS011;42885;49.754;18.636;2023-06-14T10:52:15;15.13;;;8.58;;
56991;SDS011;42885;49.754;18.636;2023-06-14T10:55:25;15.72;;;9.35;;
56991;SDS011;42885;49.754;18.636;2023-06-14T10:57:40;9.80;;;7.20;;
56991;SDS011;42885;49.754;18.636;2023-06-14T11:00:09;13.58;;;8.08;;
56991;SDS011;42885;49.754;18.636;2023-06-14T11:02:50;14.45;;;8.68;;
56991;SDS011;42885;49.754;18.636;2023-06-14T11:05:25;18.23;;;9.23;;
56991;SDS011;42885;49.754;18.636;2023-06-14T11:10:43;12.98;;;8.35;;
56991;SDS011;42885;49.754;18.636;2023-06-14T11:13:17;15.95;;;8.33;;
56991;SDS011;42885;49.754;18.636;2023-06-14T11:15:49;10.88;;;8.30;;
56991;SDS011;42885;49.754;18.636;2023-06-14T11:18:22;11.93;;;7.75;;
56991;SDS011;42885;49.754;18.636;2023-06-14T11:20:57;9.90;;;8.35;;
56991;SDS011;42885;49.754;18.636;2023-06-14T11:23:28;9.85;;;8.08;;
56991;SDS011;42885;49.754;18.636;2023-06-14T11:25:59;9.67;;;7.27;;
56991;SDS011;42885;49.754;18.636;2023-06-14T11:28:42;11.10;;;7.60;;
56991;SDS011;42885;49.754;18.636;2023-06-14T11:31:09;13.78;;;7.28;;
56991;SDS011;42885;49.754;18.636;2023-06-14T11:33:40;14.00;;;7.70;;
56991;SDS011;42885;49.754;18.636;2023-06-14T11:36:12;12.70;;;7.35;;
56991;SDS011;42885;49.754;18.636;2023-06-14T11:38:43;10.03;;;7.47;;
56991;SDS011;42885;49.754;18.636;2023-06-14T11:41:14;10.32;;;7.33;;
56991;SDS011;42885;49.754;18.636;2023-06-14T11:43:44;8.95;;;7.35;;
56991;SDS011;42885;49.754;18.636;2023-06-14T11:46:15;8.53;;;6.62;;
56991;SDS011;42885;49.754;18.636;2023-06-14T11:48:48;8.65;;;6.75;;
56991;SDS011;42885;49.754;18.636;2023-06-14T11:51:19;9.43;;;6.57;;
56991;SDS011;42885;49.754;18.636;2023-06-14T11:53:50;9.88;;;5.97;;
56991;SDS011;42885;49.754;18.636;2023-06-14T11:56:22;11.10;;;6.85;;
56991;SDS011;42885;49.754;18.636;2023-06-14T11:58:53;9.90;;;6.42;;
56991;SDS011;42885;49.754;18.636;2023-06-14T12:01:25;7.75;;;6.00;;
56991;SDS011;42885;49.754;18.636;2023-06-14T12:03:56;7.62;;;5.87;;
56991;SDS011;42885;49.754;18.636;2023-06-14T12:06:30;7.45;;;5.87;;
56991;SDS011;42885;49.754;18.636;2023-06-14T12:09:06;7.28;;;5.65;;
56991;SDS011;42885;49.754;18.636;2023-06-14T12:11:39;9.63;;;6.53;;
56991;SDS011;42885;49.754;18.636;2023-06-14T12:14:10;7.93;;;7.13;;
56991;SDS011;42885;49.754;18.636;2023-06-14T12:16:41;10.00;;;7.28;;
56991;SDS011;42885;49.754;18.636;2023-06-14T12:19:13;9.13;;;7.50;;
56991;SDS011;42885;49.754;18.636;2023-06-14T12:21:48;10.88;;;7.42;;
56991;SDS011;42885;49.754;18.636;2023-06-14T12:24:20;8.78;;;7.12;;
56991;SDS011;42885;49.754;18.636;2023-06-14T12:26:53;8.13;;;7.30;;
56991;SDS011;42885;49.754;18.636;2023-06-14T12:29:24;10.20;;;7.67;;
56991;SDS011;42885;49.754;18.636;2023-06-14T12:31:55;9.08;;;6.08;;
56991;SDS011;42885;49.754;18.636;2023-06-14T12:34:27;7.75;;;5.40;;
56991;SDS011;42885;49.754;18.636;2023-06-14T12:36:57;15.68;;;6.70;;
56991;SDS011;42885;49.754;18.636;2023-06-14T12:39:28;7.70;;;6.17;;
56991;SDS011;42885;49.754;18.636;2023-06-14T12:42:01;9.75;;;6.70;;
56991;SDS011;42885;49.754;18.636;2023-06-14T12:44:33;10.03;;;7.15;;
56991;SDS011;42885;49.754;18.636;2023-06-14T12:49:37;8.33;;;7.43;;
56991;SDS011;42885;49.754;18.636;2023-06-14T12:52:09;11.57;;;6.35;;
56991;SDS011;42885;49.754;18.636;2023-06-14T12:54:40;7.40;;;6.70;;
56991;SDS011;42885;49.754;18.636;2023-06-14T12:57:11;7.83;;;7.03;;
56991;SDS011;42885;49.754;18.636;2023-06-14T12:59:42;10.00;;;7.15;;
56991;SDS011;42885;49.754;18.636;2023-06-14T13:02:13;9.83;;;8.38;;
56991;SDS011;42885;49.754;18.636;2023-06-14T13:04:45;8.73;;;7.37;;
56991;SDS011;42885;49.754;18.636;2023-06-14T13:07:16;7.37;;;6.45;;
56991;SDS011;42885;49.754;18.636;2023-06-14T13:09:47;11.30;;;9.00;;
56991;SDS011;42885;49.754;18.636;2023-06-14T13:12:18;8.58;;;7.42;;
56991;SDS011;42885;49.754;18.636;2023-06-14T13:14:49;9.70;;;8.70;;
56991;SDS011;42885;49.754;18.636;2023-06-14T13:17:20;10.30;;;9.30;;
56991;SDS011;42885;49.754;18.636;2023-06-14T13:19:51;10.48;;;8.55;;
56991;SDS011;42885;49.754;18.636;2023-06-14T13:22:22;10.48;;;9.38;;
56991;SDS011;42885;49.754;18.636;2023-06-14T13:24:53;10.00;;;9.00;;
56991;SDS011;42885;49.754;18.636;2023-06-14T13:27:24;11.63;;;9.90;;
56991;SDS011;42885;49.754;18.636;2023-06-14T13:29:55;12.97;;;8.87;;
56991;SDS011;42885;49.754;18.636;2023-06-14T13:32:27;10.60;;;8.88;;
56991;SDS011;42885;49.754;18.636;2023-06-14T13:34:58;11.47;;;9.50;;
56991;SDS011;42885;49.754;18.636;2023-06-14T13:37:29;12.40;;;9.90;;
56991;SDS011;42885;49.754;18.636;2023-06-14T13:40:00;11.15;;;8.88;;
56991;SDS011;42885;49.754;18.636;2023-06-14T13:42:31;9.95;;;8.80;;
56991;SDS011;42885;49.754;18.636;2023-06-14T13:45:02;13.35;;;9.63;;
56991;SDS011;42885;49.754;18.636;2023-06-14T13:47:34;10.03;;;8.83;;
56991;SDS011;42885;49.754;18.636;2023-06-14T13:50:06;14.30;;;9.27;;
56991;SDS011;42885;49.754;18.636;2023-06-14T13:52:37;10.00;;;9.00;;
56991;SDS011;42885;49.754;18.636;2023-06-14T13:55:08;11.78;;;10.45;;
56991;SDS011;42885;49.754;18.636;2023-06-14T13:57:39;12.67;;;10.10;;
56991;SDS011;42885;49.754;18.636;2023-06-14T14:00:10;14.87;;;9.37;;
56991;SDS011;42885;49.754;18.636;2023-06-14T14:02:41;14.47;;;9.87;;
56991;SDS011;42885;49.754;18.636;2023-06-14T14:05:12;13.60;;;9.30;;
56991;SDS011;42885;49.754;18.636;2023-06-14T14:07:43;10.93;;;8.97;;
56991;SDS011;42885;49.754;18.636;2023-06-14T14:10:16;10.35;;;9.35;;
56991;SDS011;42885;49.754;18.636;2023-06-14T14:12:48;11.12;;;9.15;;
56991;SDS011;42885;49.754;18.636;2023-06-14T14:15:19;10.47;;;9.47;;
56991;SDS011;42885;49.754;18.636;2023-06-14T14:17:50;11.83;;;9.38;;
56991;SDS011;42885;49.754;18.636;2023-06-14T14:20:23;12.80;;;9.37;;
56991;SDS011;42885;49.754;18.636;2023-06-14T14:22:54;11.27;;;9.43;;
56991;SDS011;42885;49.754;18.636;2023-06-14T14:25:25;10.95;;;9.58;;
56991;SDS011;42885;49.754;18.636;2023-06-14T14:27:56;11.25;;;9.85;;
56991;SDS011;42885;49.754;18.636;2023-06-14T14:30:27;10.63;;;9.50;;
56991;SDS011;42885;49.754;18.636;2023-06-14T14:32:58;14.47;;;9.75;;
56991;SDS011;42885;49.754;18.636;2023-06-14T14:35:29;14.27;;;8.93;;
56991;SDS011;42885;49.754;18.636;2023-06-14T14:38:00;11.43;;;9.60;;
56991;SDS011;42885;49.754;18.636;2023-06-14T14:40:32;10.40;;;9.30;;
56991;SDS011;42885;49.754;18.636;2023-06-14T14:43:03;9.60;;;8.60;;
56991;SDS011;42885;49.754;18.636;2023-06-14T14:45:34;10.25;;;8.60;;
56991;SDS011;42885;49.754;18.636;2023-06-14T14:48:06;9.45;;;8.55;;
56991;SDS011;42885;49.754;18.636;2023-06-14T14:50:36;11.18;;;8.75;;
56991;SDS011;42885;49.754;18.636;2023-06-14T14:53:07;13.10;;;8.23;;
56991;SDS011;42885;49.754;18.636;2023-06-14T14:55:38;9.77;;;8.43;;
56991;SDS011;42885;49.754;18.636;2023-06-14T14:58:11;12.05;;;7.70;;
56991;SDS011;42885;49.754;18.636;2023-06-14T15:00:45;9.23;;;7.78;;
56991;SDS011;42885;49.754;18.636;2023-06-14T15:03:16;10.90;;;8.20;;